createdAt,value
2017-08-18T00:00:45.164Z,99
2017-08-18T00:01:48.012Z,99
2017-08-18T00:02:51.192Z,99
2017-08-18T00:03:54.002Z,99
2017-08-18T00:04:56.851Z,99
2017-08-18T00:06:00.041Z,99
2017-08-18T00:07:02.868Z,99
2017-08-18T00:08:06.064Z,99
2017-08-18T00:09:08.552Z,99
2017-08-18T00:10:11.717Z,99
2017-08-18T00:11:14.594Z,100
2017-08-18T00:12:17.087Z,100
2017-08-18T00:13:19.605Z,100
2017-08-18T00:14:22.431Z,100
2017-08-18T00:15:24.939Z,100
2017-08-18T00:16:27.770Z,100
2017-08-18T00:17:30.275Z,100
2017-08-18T00:18:32.798Z,100
2017-08-18T00:19:35.635Z,100
2017-08-18T00:20:38.470Z,100
2017-08-18T00:21:40.966Z,100
2017-08-18T00:22:43.462Z,100
2017-08-18T00:23:45.962Z,100
2017-08-18T00:24:48.809Z,100
2017-08-18T00:25:51.292Z,100
2017-08-18T00:26:53.807Z,100
2017-08-18T00:27:56.335Z,100
2017-08-18T00:28:59.180Z,100
2017-08-18T00:30:02.701Z,100
2017-08-18T00:31:05.546Z,100
2017-08-18T00:32:08.377Z,100
2017-08-18T00:33:10.875Z,100
2017-08-18T00:34:13.378Z,100
2017-08-18T00:35:15.874Z,100
2017-08-18T00:36:18.377Z,100
2017-08-18T00:37:20.899Z,100
2017-08-18T00:38:23.400Z,100
2017-08-18T00:39:25.910Z,100
2017-08-18T00:40:28.408Z,100
2017-08-18T00:41:30.906Z,100
2017-08-18T00:42:33.416Z,100
2017-08-18T00:43:35.913Z,100
2017-08-18T00:44:39.103Z,100
2017-08-18T00:45:41.948Z,100
2017-08-18T00:46:45.159Z,100
2017-08-18T00:47:47.660Z,100
2017-08-18T00:48:50.489Z,100
2017-08-18T00:49:53.310Z,100
2017-08-18T00:50:56.134Z,100
2017-08-18T00:51:58.664Z,100
2017-08-18T00:53:01.492Z,100
2017-08-18T00:54:04.343Z,100
2017-08-18T00:55:07.179Z,100
2017-08-18T00:56:10.015Z,100
2017-08-18T00:57:12.861Z,100
2017-08-18T00:58:16.376Z,100
2017-08-18T00:59:19.541Z,100
2017-08-18T01:00:22.730Z,100
2017-08-18T01:01:25.241Z,100
2017-08-18T01:02:27.738Z,100
2017-08-18T01:03:30.577Z,100
2017-08-18T01:04:33.079Z,100
2017-08-18T01:05:35.905Z,100
2017-08-18T01:06:38.404Z,100
2017-08-18T01:07:40.897Z,100
2017-08-18T01:08:43.407Z,100
2017-08-18T01:09:46.239Z,100
2017-08-18T01:10:48.731Z,100
2017-08-18T01:11:51.565Z,100
2017-08-18T01:12:54.078Z,100
2017-08-18T01:13:56.578Z,100
2017-08-18T01:14:59.077Z,100
2017-08-18T01:16:01.599Z,100
2017-08-18T01:17:05.123Z,100
2017-08-18T01:18:07.607Z,100
2017-08-18T01:19:10.117Z,100
2017-08-18T01:20:12.608Z,100
2017-08-18T01:21:15.458Z,100
2017-08-18T01:22:17.969Z,100
2017-08-18T01:23:20.818Z,100
2017-08-18T01:24:23.315Z,100
2017-08-18T01:25:25.814Z,100
2017-08-18T01:26:28.312Z,100
2017-08-18T01:27:31.160Z,100
2017-08-18T01:28:33.999Z,100
2017-08-18T01:29:36.496Z,100
2017-08-18T01:30:39.331Z,100
2017-08-18T01:31:41.824Z,100
2017-08-18T01:32:44.636Z,100
2017-08-18T01:33:47.124Z,100
2017-08-18T01:34:49.976Z,100
2017-08-18T01:35:52.816Z,100
2017-08-18T01:36:55.304Z,100
2017-08-18T01:37:57.809Z,100
2017-08-18T01:39:00.307Z,100
2017-08-18T01:40:03.154Z,100
2017-08-18T01:41:06.003Z,100
2017-08-18T01:42:09.167Z,100
2017-08-18T01:43:11.655Z,100
2017-08-18T01:44:14.168Z,100
2017-08-18T01:45:16.983Z,100
2017-08-18T01:46:19.820Z,100
2017-08-18T01:47:23.342Z,100
2017-08-18T01:48:26.196Z,100
2017-08-18T01:49:28.678Z,100
2017-08-18T01:50:31.517Z,100
2017-08-18T01:51:34.347Z,100
2017-08-18T01:52:36.849Z,100
2017-08-18T01:53:39.688Z,100
2017-08-18T01:54:42.865Z,100
2017-08-18T01:55:46.034Z,100
2017-08-18T01:56:49.210Z,100
2017-08-18T01:57:52.719Z,100
2017-08-18T01:58:55.227Z,100
2017-08-18T01:59:58.094Z,100
2017-08-18T02:01:00.588Z,100
2017-08-18T02:02:03.778Z,100
2017-08-18T02:03:06.290Z,100
2017-08-18T02:04:08.786Z,100
2017-08-18T02:05:11.631Z,100
2017-08-18T02:06:14.802Z,100
2017-08-18T02:07:17.624Z,100
2017-08-18T02:08:20.147Z,100
2017-08-18T02:09:22.654Z,100
2017-08-18T02:10:25.133Z,100
2017-08-18T02:11:27.638Z,100
2017-08-18T02:12:30.472Z,100
2017-08-18T02:13:33.006Z,100
2017-08-18T02:14:35.516Z,100
2017-08-18T02:15:38.386Z,100
2017-08-18T02:16:40.890Z,100
2017-08-18T02:17:43.396Z,100
2017-08-18T02:18:45.891Z,100
2017-08-18T02:19:48.389Z,100
2017-08-18T02:20:51.252Z,100
2017-08-18T02:21:53.740Z,100
2017-08-18T02:22:56.225Z,100
2017-08-18T02:23:58.809Z,100
2017-08-18T02:25:01.312Z,100
2017-08-18T02:26:04.149Z,100
2017-08-18T02:27:06.987Z,100
2017-08-18T02:28:09.588Z,100
2017-08-18T02:29:12.419Z,100
2017-08-18T02:30:15.255Z,100
2017-08-18T02:31:17.755Z,100
2017-08-18T02:32:20.582Z,100
2017-08-18T02:33:23.811Z,100
2017-08-18T02:34:26.668Z,100
2017-08-18T02:35:29.512Z,100
2017-08-18T02:36:32.001Z,100
2017-08-18T02:37:35.174Z,100
2017-08-18T02:38:37.688Z,100
2017-08-18T02:39:40.550Z,100
2017-08-18T02:40:43.747Z,100
2017-08-18T02:41:46.248Z,100
2017-08-18T02:42:48.737Z,100
2017-08-18T02:43:51.948Z,100
2017-08-18T02:44:54.801Z,100
2017-08-18T02:45:57.650Z,100
2017-08-18T02:47:00.153Z,100
2017-08-18T02:48:03.347Z,100
2017-08-18T02:49:05.838Z,100
2017-08-18T02:50:09.007Z,100
2017-08-18T02:51:11.846Z,100
2017-08-18T02:52:14.340Z,100
2017-08-18T02:53:17.533Z,100
2017-08-18T02:54:20.025Z,100
2017-08-18T02:55:22.856Z,100
2017-08-18T02:56:25.367Z,100
2017-08-18T02:57:27.882Z,100
2017-08-18T02:58:30.385Z,100
2017-08-18T02:59:33.558Z,100
2017-08-18T03:00:36.045Z,100
2017-08-18T03:01:38.538Z,100
2017-08-18T03:02:41.375Z,100
2017-08-18T03:03:43.875Z,100
2017-08-18T03:04:47.046Z,100
2017-08-18T03:05:50.226Z,100
2017-08-18T03:06:52.708Z,100
2017-08-18T03:07:55.890Z,100
2017-08-18T03:08:58.379Z,100
2017-08-18T03:10:00.885Z,100
2017-08-18T03:11:04.088Z,100
2017-08-18T03:12:06.926Z,100
2017-08-18T03:13:09.432Z,100
2017-08-18T03:14:12.991Z,100
2017-08-18T03:15:15.839Z,100
2017-08-18T03:16:18.389Z,100
2017-08-18T03:17:21.248Z,100
2017-08-18T03:18:23.749Z,100
2017-08-18T03:19:26.586Z,100
2017-08-18T03:20:29.079Z,100
2017-08-18T03:21:31.580Z,100
2017-08-18T03:22:34.075Z,100
2017-08-18T03:23:36.577Z,100
2017-08-18T03:24:39.079Z,100
2017-08-18T03:25:41.572Z,100
2017-08-18T03:26:44.751Z,100
2017-08-18T03:27:47.256Z,100
2017-08-18T03:28:50.087Z,100
2017-08-18T03:29:52.929Z,100
2017-08-18T03:30:55.451Z,100
2017-08-18T03:31:58.619Z,100
2017-08-18T03:33:01.130Z,100
2017-08-18T03:34:03.986Z,100
2017-08-18T03:35:06.475Z,100
2017-08-18T03:36:08.976Z,100
2017-08-18T03:37:11.807Z,100
2017-08-18T03:38:15.003Z,100
2017-08-18T03:39:18.202Z,100
2017-08-18T03:40:21.024Z,100
2017-08-18T03:41:23.528Z,100
2017-08-18T03:42:26.025Z,100
2017-08-18T03:43:28.509Z,100
2017-08-18T03:44:31.000Z,100
2017-08-18T03:45:33.492Z,100
2017-08-18T03:46:35.978Z,100
2017-08-18T03:47:38.820Z,100
2017-08-18T03:48:41.995Z,100
2017-08-18T03:49:44.841Z,100
2017-08-18T03:50:47.353Z,100
2017-08-18T03:51:49.841Z,100
2017-08-18T03:52:52.678Z,100
2017-08-18T03:53:55.181Z,100
2017-08-18T03:54:57.684Z,100
2017-08-18T03:56:00.191Z,100
2017-08-18T03:57:02.683Z,100
2017-08-18T03:58:05.519Z,100
2017-08-18T03:59:08.368Z,100
2017-08-18T04:00:11.203Z,100
2017-08-18T04:01:14.032Z,100
2017-08-18T04:02:16.543Z,100
2017-08-18T04:03:19.392Z,100
2017-08-18T04:04:22.244Z,100
2017-08-18T04:05:24.752Z,100
2017-08-18T04:06:27.236Z,100
2017-08-18T04:07:30.075Z,100
2017-08-18T04:08:32.573Z,100
2017-08-18T04:09:35.077Z,100
2017-08-18T04:10:37.919Z,100
2017-08-18T04:11:40.413Z,100
2017-08-18T04:12:43.564Z,100
2017-08-18T04:13:46.422Z,100
2017-08-18T04:14:49.259Z,100
2017-08-18T04:15:52.435Z,100
2017-08-18T04:16:55.260Z,100
2017-08-18T04:17:58.090Z,100
2017-08-18T04:19:00.927Z,100
2017-08-18T04:20:03.771Z,100
2017-08-18T04:21:06.625Z,100
2017-08-18T04:22:09.126Z,100
2017-08-18T04:23:11.951Z,100
2017-08-18T04:24:14.804Z,100
2017-08-18T04:25:17.988Z,100
2017-08-18T04:26:20.481Z,100
2017-08-18T04:27:22.978Z,100
2017-08-18T04:28:25.482Z,100
2017-08-18T04:29:27.981Z,100
2017-08-18T04:30:30.502Z,100
2017-08-18T04:31:33.008Z,100
2017-08-18T04:32:35.508Z,100
2017-08-18T04:33:38.689Z,100
2017-08-18T04:34:41.851Z,100
2017-08-18T04:35:45.029Z,100
2017-08-18T04:36:47.519Z,100
2017-08-18T04:37:50.012Z,100
2017-08-18T04:38:52.515Z,100
2017-08-18T04:39:55.008Z,100
2017-08-18T04:40:57.509Z,100
2017-08-18T04:41:59.998Z,100
2017-08-18T04:43:02.831Z,100
2017-08-18T04:44:05.333Z,100
2017-08-18T04:45:07.825Z,100
2017-08-18T04:46:10.655Z,100
2017-08-18T04:47:13.159Z,100
2017-08-18T04:48:15.991Z,100
2017-08-18T04:49:18.489Z,100
2017-08-18T04:50:21.337Z,100
2017-08-18T04:51:24.184Z,100
2017-08-18T04:52:27.012Z,100
2017-08-18T04:53:29.507Z,100
2017-08-18T04:54:32.002Z,100
2017-08-18T04:55:34.506Z,100
2017-08-18T04:56:37.330Z,100
2017-08-18T04:57:39.841Z,100
2017-08-18T04:58:42.335Z,100
2017-08-18T04:59:44.832Z,100
2017-08-18T05:00:47.318Z,100
2017-08-18T05:01:50.184Z,100
2017-08-18T05:02:52.690Z,100
2017-08-18T05:03:55.525Z,100
2017-08-18T05:04:58.360Z,100
2017-08-18T05:06:01.582Z,100
2017-08-18T05:07:04.079Z,100
2017-08-18T05:08:06.582Z,100
2017-08-18T05:09:10.113Z,100
2017-08-18T05:10:12.955Z,100
2017-08-18T05:11:15.448Z,100
2017-08-18T05:12:18.680Z,100
2017-08-18T05:13:41.042Z,100
2017-08-18T05:14:43.500Z,100
2017-08-18T05:15:45.947Z,100
2017-08-18T05:16:49.441Z,100
2017-08-18T05:17:52.952Z,100
2017-08-18T05:18:55.418Z,100
2017-08-18T05:19:57.858Z,100
2017-08-18T05:21:00.657Z,100
2017-08-18T05:22:03.792Z,100
2017-08-18T05:23:06.584Z,100
2017-08-18T05:24:09.057Z,100
2017-08-18T05:25:11.505Z,100
2017-08-18T05:26:14.647Z,100
2017-08-18T05:27:17.795Z,100
2017-08-18T05:28:20.238Z,100
2017-08-18T05:29:23.077Z,100
2017-08-18T05:30:25.543Z,100
2017-08-18T05:31:27.983Z,100
2017-08-18T05:32:30.777Z,100
2017-08-18T05:33:33.237Z,100
2017-08-18T05:34:35.698Z,100
2017-08-18T05:35:38.149Z,100
2017-08-18T05:36:40.934Z,100
2017-08-18T05:37:44.085Z,100
2017-08-18T05:38:46.551Z,100
2017-08-18T05:39:49.691Z,100
2017-08-18T05:40:52.154Z,100
2017-08-18T05:41:54.617Z,100
2017-08-18T05:42:57.426Z,100
2017-08-18T05:44:00.264Z,100
2017-08-18T05:45:03.066Z,100
2017-08-18T05:46:05.861Z,100
2017-08-18T05:47:09.338Z,100
2017-08-18T05:48:12.144Z,100
2017-08-18T05:49:14.947Z,100
2017-08-18T05:50:17.748Z,100
2017-08-18T05:51:21.576Z,100
2017-08-18T05:52:24.397Z,99
2017-08-18T05:53:26.846Z,99
2017-08-18T05:54:29.633Z,99
2017-08-18T05:55:32.094Z,99
2017-08-18T05:56:34.880Z,99
2017-08-18T05:57:37.681Z,99
2017-08-18T05:58:40.485Z,99
2017-08-18T05:59:43.282Z,99
2017-08-18T06:00:45.750Z,99
2017-08-18T06:01:48.217Z,99
2017-08-18T06:02:50.655Z,99
2017-08-18T06:03:53.457Z,99
2017-08-18T06:04:56.273Z,99
2017-08-18T06:05:58.730Z,99
2017-08-18T06:07:01.200Z,99
2017-08-18T06:08:05.004Z,99
2017-08-18T06:09:07.484Z,99
2017-08-18T06:10:10.286Z,99
2017-08-18T06:11:12.765Z,99
2017-08-18T06:12:15.889Z,99
2017-08-18T06:13:18.369Z,99
2017-08-18T06:14:21.168Z,99
2017-08-18T06:15:23.613Z,99
2017-08-18T06:16:26.406Z,98
2017-08-18T06:17:29.214Z,99
2017-08-18T06:18:32.030Z,98
2017-08-18T06:19:34.482Z,98
2017-08-18T06:20:37.291Z,98
2017-08-18T06:21:39.760Z,98
2017-08-18T06:22:42.895Z,98
2017-08-18T06:23:45.359Z,98
2017-08-18T06:24:47.808Z,98
2017-08-18T06:25:50.595Z,98
2017-08-18T06:26:53.417Z,98
2017-08-18T06:27:55.867Z,98
2017-08-18T06:28:58.675Z,98
2017-08-18T06:30:01.477Z,97
2017-08-18T06:31:04.961Z,97
2017-08-18T06:32:08.436Z,97
2017-08-18T06:33:11.575Z,97
2017-08-18T06:34:14.697Z,97
2017-08-18T06:35:17.508Z,97
2017-08-18T06:36:20.655Z,97
2017-08-18T06:37:23.459Z,97
2017-08-18T06:38:25.938Z,97
2017-08-18T06:39:28.736Z,97
2017-08-18T06:40:31.866Z,97
2017-08-18T06:41:35.003Z,97
2017-08-18T06:42:37.812Z,97
2017-08-18T06:43:40.288Z,97
2017-08-18T06:44:43.095Z,97
2017-08-18T06:45:46.216Z,97
2017-08-18T06:46:48.674Z,96
2017-08-18T06:47:51.821Z,96
2017-08-18T06:48:54.278Z,96
2017-08-18T06:49:56.729Z,97
2017-08-18T06:50:59.193Z,96
2017-08-18T06:52:01.648Z,96
2017-08-18T06:53:04.463Z,96
2017-08-18T06:54:06.918Z,96
2017-08-18T06:55:09.703Z,96
2017-08-18T06:56:12.168Z,96
2017-08-18T06:57:14.618Z,96
2017-08-18T06:58:18.098Z,96
2017-08-18T06:59:20.559Z,96
2017-08-18T07:00:23.028Z,96
2017-08-18T07:01:25.485Z,96
2017-08-18T07:02:28.689Z,96
2017-08-18T07:03:31.148Z,96
2017-08-18T07:04:33.599Z,96
2017-08-18T07:05:36.728Z,96
2017-08-18T07:06:39.865Z,96
2017-08-18T07:07:42.701Z,96
2017-08-18T07:08:45.161Z,96
2017-08-18T07:09:47.951Z,96
2017-08-18T07:10:50.759Z,95
2017-08-18T07:11:53.213Z,95
2017-08-18T07:12:55.677Z,95
2017-08-18T07:13:58.480Z,95
2017-08-18T07:15:01.282Z,95
2017-08-18T07:16:03.747Z,95
2017-08-18T07:17:06.212Z,95
2017-08-18T07:18:08.665Z,95
2017-08-18T07:19:11.481Z,95
2017-08-18T07:20:14.601Z,95
2017-08-18T07:21:17.069Z,95
2017-08-18T07:22:20.569Z,94
2017-08-18T07:23:23.047Z,94
2017-08-18T07:24:25.520Z,94
2017-08-18T07:25:28.343Z,94
2017-08-18T07:26:30.789Z,94
2017-08-18T07:27:33.263Z,94
2017-08-18T07:28:35.736Z,94
2017-08-18T07:29:38.883Z,94
2017-08-18T07:30:41.353Z,94
2017-08-18T07:31:43.820Z,94
2017-08-18T07:32:46.623Z,94
2017-08-18T07:33:49.431Z,94
2017-08-18T07:34:52.567Z,94
2017-08-18T07:35:55.029Z,93
2017-08-18T07:36:57.506Z,93
2017-08-18T07:38:00.318Z,93
2017-08-18T07:39:03.472Z,94
2017-08-18T07:40:06.604Z,93
2017-08-18T07:41:09.051Z,93
2017-08-18T07:42:11.511Z,93
2017-08-18T07:43:14.332Z,93
2017-08-18T07:44:16.803Z,93
2017-08-18T07:45:19.597Z,93
2017-08-18T07:46:22.051Z,93
2017-08-18T07:47:24.851Z,93
2017-08-18T07:48:28.010Z,93
2017-08-18T07:49:30.810Z,92
2017-08-18T07:50:33.274Z,92
2017-08-18T07:51:36.082Z,92
2017-08-18T07:52:38.531Z,92
2017-08-18T07:53:41.339Z,92
2017-08-18T07:54:44.139Z,92
2017-08-18T07:55:46.598Z,92
2017-08-18T07:56:50.060Z,92
2017-08-18T07:57:52.534Z,92
2017-08-18T07:58:54.989Z,91
2017-08-18T07:59:57.820Z,91
2017-08-18T08:01:01.643Z,91
2017-08-18T08:02:04.811Z,91
2017-08-18T08:03:07.973Z,90
2017-08-18T08:04:11.107Z,90
2017-08-18T08:05:13.912Z,90
2017-08-18T08:06:16.378Z,91
2017-08-18T08:07:19.519Z,91
2017-08-18T08:08:22.684Z,91
2017-08-18T08:09:25.145Z,90
2017-08-18T08:10:27.610Z,90
2017-08-18T08:11:30.085Z,90
2017-08-18T08:12:32.548Z,90
2017-08-18T08:13:35.006Z,90
2017-08-18T08:14:37.822Z,90
2017-08-18T08:15:40.628Z,90
2017-08-18T08:16:43.418Z,90
2017-08-18T08:17:45.877Z,90
2017-08-18T08:18:48.354Z,89
2017-08-18T08:19:50.819Z,89
2017-08-18T08:20:53.634Z,88
2017-08-18T08:21:56.778Z,89
2017-08-18T08:22:59.230Z,88
2017-08-18T08:24:02.033Z,88
2017-08-18T08:25:04.496Z,88
2017-08-18T08:26:06.976Z,88
2017-08-18T08:27:10.121Z,88
2017-08-18T08:28:12.923Z,88
2017-08-18T08:29:15.747Z,88
2017-08-18T08:30:18.899Z,88
2017-08-18T08:31:21.343Z,87
2017-08-18T08:32:23.798Z,87
2017-08-18T08:33:26.274Z,88
2017-08-18T08:34:28.741Z,87
2017-08-18T08:35:31.882Z,87
2017-08-18T08:36:34.693Z,87
2017-08-18T08:37:37.825Z,86
2017-08-18T08:38:40.647Z,87
2017-08-18T08:39:43.464Z,85
2017-08-18T08:40:46.581Z,84
2017-08-18T08:41:49.395Z,85
2017-08-18T08:42:51.846Z,85
2017-08-18T08:43:54.306Z,85
2017-08-18T08:44:56.779Z,86
2017-08-18T08:45:59.234Z,86
2017-08-18T08:47:02.380Z,86
2017-08-18T08:48:05.522Z,86
2017-08-18T08:49:08.325Z,86
2017-08-18T08:50:10.806Z,86
2017-08-18T08:51:13.946Z,86
2017-08-18T08:52:17.072Z,86
2017-08-18T08:53:20.215Z,87
2017-08-18T08:54:23.026Z,86
2017-08-18T08:55:25.488Z,87
2017-08-18T08:56:27.958Z,87
2017-08-18T08:57:30.408Z,87
2017-08-18T08:58:32.873Z,87
2017-08-18T08:59:35.348Z,86
2017-08-18T09:00:37.813Z,86
2017-08-18T09:01:40.283Z,86
2017-08-18T09:02:43.080Z,86
2017-08-18T09:03:46.215Z,86
2017-08-18T09:04:49.033Z,86
2017-08-18T09:05:52.183Z,85
2017-08-18T09:06:55.652Z,85
2017-08-18T09:07:58.120Z,85
2017-08-18T09:09:01.269Z,85
2017-08-18T09:10:04.072Z,84
2017-08-18T09:11:06.855Z,84
2017-08-18T09:12:09.670Z,84
2017-08-18T09:13:12.818Z,84
2017-08-18T09:14:15.619Z,84
2017-08-18T09:15:18.424Z,84
2017-08-18T09:16:21.262Z,82
2017-08-18T09:17:24.099Z,83
2017-08-18T09:18:26.909Z,82
2017-08-18T09:19:29.377Z,81
2017-08-18T09:20:32.181Z,83
2017-08-18T09:21:34.672Z,82
2017-08-18T09:22:37.521Z,82
2017-08-18T09:23:40.013Z,82
2017-08-18T09:24:43.175Z,82
2017-08-18T09:25:45.652Z,81
2017-08-18T09:26:48.454Z,82
2017-08-18T09:27:51.595Z,82
2017-08-18T09:28:54.395Z,81
2017-08-18T09:29:57.200Z,81
2017-08-18T09:31:00.031Z,81
2017-08-18T09:32:02.840Z,81
2017-08-18T09:33:05.970Z,80
2017-08-18T09:34:09.144Z,81
2017-08-18T09:35:11.942Z,80
2017-08-18T09:36:14.408Z,80
2017-08-18T09:37:17.408Z,80
2017-08-18T09:38:21.220Z,79
2017-08-18T09:39:23.687Z,79
2017-08-18T09:40:26.489Z,79
2017-08-18T09:41:28.945Z,79
2017-08-18T09:42:31.422Z,80
2017-08-18T09:43:33.896Z,78
2017-08-18T09:44:36.363Z,79
2017-08-18T09:45:39.508Z,78
2017-08-18T09:46:42.301Z,78
2017-08-18T09:47:44.776Z,79
2017-08-18T09:48:47.245Z,77
2017-08-18T09:49:50.049Z,78
2017-08-18T09:50:52.850Z,78
2017-08-18T09:51:55.645Z,78
2017-08-18T09:52:58.468Z,78
2017-08-18T09:54:01.265Z,79
2017-08-18T09:55:03.724Z,78
2017-08-18T09:56:06.543Z,76
2017-08-18T09:57:09.349Z,76
2017-08-18T09:58:11.820Z,77
2017-08-18T09:59:14.622Z,76
2017-08-18T10:00:17.765Z,76
2017-08-18T10:01:20.574Z,76
2017-08-18T10:02:23.399Z,76
2017-08-18T10:03:25.861Z,76
2017-08-18T10:04:28.663Z,76
2017-08-18T10:05:31.126Z,75
2017-08-18T10:06:33.916Z,76
2017-08-18T10:07:36.385Z,76
2017-08-18T10:08:39.538Z,76
2017-08-18T10:09:41.998Z,76
2017-08-18T10:10:45.142Z,76
2017-08-18T10:11:47.634Z,76
2017-08-18T10:12:50.093Z,77
2017-08-18T10:13:52.562Z,77
2017-08-18T10:14:55.032Z,75
2017-08-18T10:15:57.843Z,75
2017-08-18T10:17:00.301Z,76
2017-08-18T10:18:03.095Z,76
2017-08-18T10:19:05.903Z,76
2017-08-18T10:20:08.702Z,75
2017-08-18T10:21:11.208Z,75
2017-08-18T10:22:14.362Z,75
2017-08-18T10:23:16.813Z,76
2017-08-18T10:24:19.617Z,75
2017-08-18T10:25:22.420Z,75
2017-08-18T10:26:25.556Z,76
2017-08-18T10:27:28.037Z,76
2017-08-18T10:28:30.491Z,76
2017-08-18T10:29:33.285Z,76
2017-08-18T10:30:36.104Z,76
2017-08-18T10:31:38.569Z,76
2017-08-18T10:32:41.054Z,76
2017-08-18T10:33:43.861Z,76
2017-08-18T10:34:46.322Z,75
2017-08-18T10:35:49.123Z,75
2017-08-18T10:36:51.585Z,75
2017-08-18T10:37:54.048Z,76
2017-08-18T10:38:56.853Z,75
2017-08-18T10:39:59.326Z,76
2017-08-18T10:41:02.466Z,76
2017-08-18T10:42:05.260Z,77
2017-08-18T10:43:08.050Z,77
2017-08-18T10:44:10.852Z,79
2017-08-18T10:45:13.659Z,79
2017-08-18T10:46:16.462Z,77
2017-08-18T10:47:19.276Z,77
2017-08-18T10:48:21.740Z,77
2017-08-18T10:49:24.877Z,77
2017-08-18T10:50:27.366Z,76
2017-08-18T10:51:30.509Z,76
2017-08-18T10:52:32.982Z,77
2017-08-18T10:53:35.781Z,77
2017-08-18T10:54:38.567Z,77
2017-08-18T10:55:41.034Z,78
2017-08-18T10:56:43.492Z,76
2017-08-18T10:57:45.951Z,77
2017-08-18T10:58:49.092Z,76
2017-08-18T10:59:51.553Z,77
2017-08-18T11:00:54.698Z,77
2017-08-18T11:01:57.162Z,77
2017-08-18T11:02:59.615Z,77
2017-08-18T11:04:02.423Z,77
2017-08-18T11:05:06.606Z,77
2017-08-18T11:06:09.400Z,77
2017-08-18T11:07:12.552Z,77
2017-08-18T11:08:15.016Z,77
2017-08-18T11:09:17.805Z,77
2017-08-18T11:10:20.938Z,77
2017-08-18T11:11:23.408Z,77
2017-08-18T11:12:25.871Z,76
2017-08-18T11:13:28.328Z,76
2017-08-18T11:14:31.136Z,76
2017-08-18T11:15:34.272Z,76
2017-08-18T11:16:37.415Z,76
2017-08-18T11:17:40.561Z,76
2017-08-18T11:18:43.351Z,77
2017-08-18T11:19:46.162Z,76
2017-08-18T11:20:49.299Z,77
2017-08-18T11:21:52.102Z,77
2017-08-18T11:22:54.905Z,77
2017-08-18T11:23:57.711Z,76
2017-08-18T11:25:00.173Z,77
2017-08-18T11:26:03.321Z,77
2017-08-18T11:27:05.786Z,77
2017-08-18T11:28:08.591Z,78
2017-08-18T11:29:11.038Z,77
2017-08-18T11:30:15.232Z,77
2017-08-18T11:31:18.042Z,77
2017-08-18T11:32:20.503Z,75
2017-08-18T11:33:23.329Z,76
2017-08-18T11:34:25.794Z,75
2017-08-18T11:35:28.268Z,76
2017-08-18T11:36:31.062Z,76
2017-08-18T11:37:33.532Z,77
2017-08-18T11:38:36.327Z,76
2017-08-18T11:39:38.807Z,76
2017-08-18T11:40:41.618Z,77
2017-08-18T11:41:44.418Z,77
2017-08-18T11:42:46.895Z,77
2017-08-18T11:43:49.717Z,77
2017-08-18T11:44:53.199Z,77
2017-08-18T11:45:55.993Z,77
2017-08-18T11:46:58.462Z,77
2017-08-18T11:48:01.256Z,78
2017-08-18T11:49:04.732Z,78
2017-08-18T11:50:07.879Z,80
2017-08-18T11:51:11.357Z,79
2017-08-18T11:52:14.837Z,79
2017-08-18T11:53:17.306Z,79
2017-08-18T11:54:20.102Z,78
2017-08-18T11:55:23.255Z,79
2017-08-18T11:56:26.051Z,78
2017-08-18T11:57:28.511Z,79
2017-08-18T11:58:30.972Z,78
2017-08-18T11:59:33.780Z,78
2017-08-18T12:00:37.248Z,78
2017-08-18T12:01:40.079Z,79
2017-08-18T12:02:43.050Z,79
2017-08-18T12:03:45.779Z,79
2017-08-18T12:04:48.575Z,79
2017-08-18T12:05:51.307Z,78
2017-08-18T12:06:53.774Z,79
2017-08-18T12:07:56.766Z,78
2017-08-18T12:08:59.571Z,79
2017-08-18T12:10:02.745Z,81
2017-08-18T12:11:05.943Z,80
2017-08-18T12:12:08.433Z,79
2017-08-18T12:13:11.236Z,80
2017-08-18T12:14:13.703Z,78
2017-08-18T12:15:16.561Z,79
2017-08-18T12:16:19.133Z,80
2017-08-18T12:17:22.105Z,81
2017-08-18T12:18:24.621Z,80
2017-08-18T12:19:27.083Z,81
2017-08-18T12:20:30.702Z,82
2017-08-18T12:21:33.841Z,84
2017-08-18T12:22:36.757Z,85
2017-08-18T12:23:39.661Z,85
2017-08-18T12:24:42.646Z,85
2017-08-18T12:25:45.135Z,85
2017-08-18T12:26:48.005Z,84
2017-08-18T12:27:50.932Z,85
2017-08-18T12:28:53.393Z,85
2017-08-18T12:29:56.677Z,85
2017-08-18T12:30:59.144Z,83
2017-08-18T12:32:02.080Z,85
2017-08-18T12:33:04.877Z,85
2017-08-18T12:34:07.438Z,82
2017-08-18T12:35:09.924Z,81
2017-08-18T12:36:12.830Z,82
2017-08-18T12:37:15.282Z,83
2017-08-18T12:38:17.875Z,84
2017-08-18T12:39:21.038Z,84
2017-08-18T12:40:23.943Z,85
2017-08-18T12:41:26.438Z,85
2017-08-18T12:42:29.674Z,84
2017-08-18T12:43:32.148Z,84
2017-08-18T12:44:34.781Z,85
2017-08-18T12:45:37.580Z,85
2017-08-18T12:46:40.186Z,85
2017-08-18T12:47:42.654Z,84
2017-08-18T12:48:45.592Z,82
2017-08-18T12:49:48.827Z,82
2017-08-18T12:50:51.421Z,82
2017-08-18T12:51:53.880Z,82
2017-08-18T12:52:56.434Z,85
2017-08-18T12:53:59.260Z,83
2017-08-18T12:55:01.850Z,84
2017-08-18T12:56:04.999Z,84
2017-08-18T12:57:07.952Z,84
2017-08-18T12:58:11.135Z,86
2017-08-18T12:59:13.934Z,85
2017-08-18T13:00:17.086Z,86
2017-08-18T13:01:20.544Z,85
2017-08-18T13:02:23.018Z,86
2017-08-18T13:03:25.458Z,86
2017-08-18T13:04:27.930Z,85
2017-08-18T13:05:30.388Z,85
2017-08-18T13:06:33.530Z,83
2017-08-18T13:07:35.987Z,85
2017-08-18T13:08:38.478Z,86
2017-08-18T13:09:40.934Z,85
2017-08-18T13:10:43.928Z,86
2017-08-18T13:11:47.081Z,87
2017-08-18T13:12:52.438Z,88
2017-08-18T13:13:56.515Z,88
2017-08-18T13:14:59.387Z,86
2017-08-18T13:16:02.649Z,86
2017-08-18T13:17:06.152Z,85
2017-08-18T13:18:08.991Z,85
2017-08-18T13:19:11.803Z,85
2017-08-18T13:20:14.618Z,85
2017-08-18T13:21:17.084Z,86
2017-08-18T13:22:19.899Z,86
2017-08-18T13:23:22.499Z,86
2017-08-18T13:24:24.972Z,86
2017-08-18T13:25:27.466Z,86
2017-08-18T13:26:29.940Z,87
2017-08-18T13:27:32.412Z,87
2017-08-18T13:28:35.231Z,89
2017-08-18T13:29:38.027Z,89
2017-08-18T13:30:40.498Z,89
2017-08-18T13:31:42.970Z,89
2017-08-18T13:32:45.769Z,87
2017-08-18T13:33:48.577Z,87
2017-08-18T13:34:51.029Z,87
2017-08-18T13:35:53.849Z,86
2017-08-18T13:36:56.330Z,86
2017-08-18T13:37:58.793Z,87
2017-08-18T13:39:01.590Z,88
2017-08-18T13:40:04.754Z,89
2017-08-18T13:41:07.213Z,89
2017-08-18T13:42:10.350Z,89
2017-08-18T13:43:12.826Z,89
2017-08-18T13:44:15.999Z,89
2017-08-18T13:45:19.843Z,88
2017-08-18T13:46:22.308Z,87
2017-08-18T13:47:25.109Z,88
2017-08-18T13:48:27.906Z,88
2017-08-18T13:49:31.153Z,89
2017-08-18T13:50:33.945Z,89
2017-08-18T13:51:36.742Z,89
2017-08-18T13:52:39.207Z,90
2017-08-18T13:53:42.679Z,91
2017-08-18T13:54:45.473Z,91
2017-08-18T13:55:47.935Z,91
2017-08-18T13:56:50.736Z,91
2017-08-18T13:57:53.887Z,91
2017-08-18T13:58:56.361Z,91
2017-08-18T13:59:58.844Z,91
2017-08-18T14:01:01.657Z,91
2017-08-18T14:02:04.124Z,92
2017-08-18T14:03:06.927Z,92
2017-08-18T14:04:09.733Z,92
2017-08-18T14:05:12.540Z,92
2017-08-18T14:06:15.681Z,91
2017-08-18T14:07:18.144Z,91
2017-08-18T14:08:20.599Z,90
2017-08-18T14:09:23.771Z,91
2017-08-18T14:10:26.225Z,92
2017-08-18T14:11:28.689Z,92
2017-08-18T14:12:31.849Z,92
2017-08-18T14:13:34.678Z,91
2017-08-18T14:14:37.818Z,90
2017-08-18T14:15:40.655Z,89
2017-08-18T14:16:43.448Z,89
2017-08-18T14:17:46.593Z,89
2017-08-18T14:18:49.391Z,90
2017-08-18T14:19:52.207Z,91
2017-08-18T14:20:55.356Z,92
2017-08-18T14:21:57.841Z,92
2017-08-18T14:23:01.310Z,92
2017-08-18T14:24:04.127Z,93
2017-08-18T14:25:06.579Z,92
2017-08-18T14:26:09.383Z,92
2017-08-18T14:27:11.845Z,93
2017-08-18T14:28:14.297Z,92
2017-08-18T14:29:17.104Z,91
2017-08-18T14:30:19.935Z,92
2017-08-18T14:31:22.402Z,91
2017-08-18T14:32:25.212Z,91
2017-08-18T14:33:28.011Z,91
2017-08-18T14:34:30.461Z,91
2017-08-18T14:35:32.932Z,91
2017-08-18T14:36:35.404Z,90
2017-08-18T14:37:37.873Z,90
2017-08-18T14:38:40.663Z,91
2017-08-18T14:39:43.478Z,91
2017-08-18T14:40:46.948Z,92
2017-08-18T14:41:49.403Z,92
2017-08-18T14:42:51.856Z,90